Amboy, Indiana
Current Conditions -  °F | °C
As of 11:55 PM on Saturday 22 Nov 2014 (Local Time) from KOKK Reporting Station
Overcast Overcast  
Wind Chill: 43°   Ceiling: 4000
Heat Index: 46°   Visibility: 10mi
Dew Point: 41°   Wind: 7mph
Humidity: 81%   Direction: 180°S
Pressure: 29.98"   Gusts: NA
Location:  40.6°N, 85.93°W
Report Text: KOKK 230455Z AUTO 18006KT 10SM BKN040 BKN049 OVC060 08/05 A2998 RMK AO1 P0002
Loading
Personal Weather Stations






























Interactive Weather Map New forecast layout! Learn more

10-Day Weather Forecast

Advertisements
Track Severe Weather on mobile